sensor_id;sensor_type;location;lat;lon;timestamp;P1;durP1;ratioP1;P2;durP2;ratioP2
62110;SDS011;48102;47.526;19.072;2023-11-21T04:41:27;9.23;;;7.93;;
62110;SDS011;48102;47.526;19.072;2023-11-21T04:44:30;15.75;;;8.82;;
62110;SDS011;48102;47.526;19.072;2023-11-21T04:47:33;12.95;;;8.73;;
62110;SDS011;48102;47.526;19.072;2023-11-21T04:50:36;14.00;;;9.20;;
62110;SDS011;48102;47.526;19.072;2023-11-21T04:53:39;15.70;;;9.55;;
62110;SDS011;48102;47.526;19.072;2023-11-21T04:56:42;13.07;;;9.70;;
62110;SDS011;48102;47.526;19.072;2023-11-21T04:59:45;12.73;;;8.35;;
62110;SDS011;48102;47.526;19.072;2023-11-21T05:05:50;14.45;;;9.00;;
62110;SDS011;48102;47.526;19.072;2023-11-21T05:11:59;16.17;;;8.63;;
62110;SDS011;48102;47.526;19.072;2023-11-21T05:18:12;12.05;;;8.40;;
62110;SDS011;48102;47.526;19.072;2023-11-21T05:21:18;13.60;;;9.13;;
62110;SDS011;48102;47.526;19.072;2023-11-21T05:24:23;13.77;;;8.52;;
62110;SDS011;48102;47.526;19.072;2023-11-21T05:30:28;12.45;;;8.18;;
62110;SDS011;48102;47.526;19.072;2023-11-21T05:33:31;12.37;;;8.27;;
62110;SDS011;48102;47.526;19.072;2023-11-21T05:36:35;11.52;;;7.72;;
62110;SDS011;48102;47.526;19.072;2023-11-21T05:42:41;14.40;;;8.93;;
62110;SDS011;48102;47.526;19.072;2023-11-21T05:48:46;12.57;;;9.00;;
62110;SDS011;48102;47.526;19.072;2023-11-21T05:51:50;11.65;;;7.80;;
62110;SDS011;48102;47.526;19.072;2023-11-21T05:54:56;18.12;;;9.30;;
62110;SDS011;48102;47.526;19.072;2023-11-21T06:01:01;12.20;;;7.85;;
62110;SDS011;48102;47.526;19.072;2023-11-21T06:04:08;17.17;;;8.77;;
62110;SDS011;48102;47.526;19.072;2023-11-21T06:07:12;13.45;;;8.05;;
62110;SDS011;48102;47.526;19.072;2023-11-21T06:10:15;15.52;;;8.50;;
62110;SDS011;48102;47.526;19.072;2023-11-21T06:13:20;15.07;;;8.95;;
62110;SDS011;48102;47.526;19.072;2023-11-21T06:16:27;15.13;;;9.57;;
62110;SDS011;48102;47.526;19.072;2023-11-21T06:22:33;13.35;;;7.70;;
62110;SDS011;48102;47.526;19.072;2023-11-21T06:25:36;9.70;;;6.62;;
62110;SDS011;48102;47.526;19.072;2023-11-21T06:28:39;13.07;;;6.55;;
62110;SDS011;48102;47.526;19.072;2023-11-21T06:34:46;15.82;;;6.37;;
62110;SDS011;48102;47.526;19.072;2023-11-21T06:37:49;10.50;;;7.18;;
62110;SDS011;48102;47.526;19.072;2023-11-21T06:40:54;10.90;;;5.87;;
62110;SDS011;48102;47.526;19.072;2023-11-21T06:47:02;8.23;;;5.57;;
62110;SDS011;48102;47.526;19.072;2023-11-21T06:50:05;10.23;;;5.03;;
62110;SDS011;48102;47.526;19.072;2023-11-21T06:53:09;6.97;;;4.87;;
62110;SDS011;48102;47.526;19.072;2023-11-21T06:56:16;8.93;;;5.43;;
62110;SDS011;48102;47.526;19.072;2023-11-21T06:59:22;11.45;;;5.37;;
62110;SDS011;48102;47.526;19.072;2023-11-21T07:02:26;13.57;;;5.72;;
62110;SDS011;48102;47.526;19.072;2023-11-21T07:05:29;11.82;;;5.40;;
62110;SDS011;48102;47.526;19.072;2023-11-21T07:08:34;7.78;;;5.57;;
62110;SDS011;48102;47.526;19.072;2023-11-21T07:14:45;8.80;;;5.80;;
62110;SDS011;48102;47.526;19.072;2023-11-21T07:17:48;7.97;;;4.75;;
62110;SDS011;48102;47.526;19.072;2023-11-21T07:20:51;9.27;;;5.00;;
62110;SDS011;48102;47.526;19.072;2023-11-21T07:26:56;7.03;;;4.80;;
62110;SDS011;48102;47.526;19.072;2023-11-21T07:30:00;7.85;;;4.57;;
62110;SDS011;48102;47.526;19.072;2023-11-21T07:33:03;10.32;;;5.30;;
62110;SDS011;48102;47.526;19.072;2023-11-21T07:36:06;9.70;;;5.05;;
62110;SDS011;48102;47.526;19.072;2023-11-21T07:39:09;8.90;;;4.70;;
62110;SDS011;48102;47.526;19.072;2023-11-21T07:42:13;9.40;;;4.22;;
62110;SDS011;48102;47.526;19.072;2023-11-21T07:45:16;13.80;;;5.12;;
62110;SDS011;48102;47.526;19.072;2023-11-21T07:51:22;6.32;;;4.15;;
62110;SDS011;48102;47.526;19.072;2023-11-21T07:57:28;11.40;;;4.95;;
62110;SDS011;48102;47.526;19.072;2023-11-21T08:03:34;11.03;;;6.77;;
62110;SDS011;48102;47.526;19.072;2023-11-21T08:09:40;9.88;;;6.87;;
62110;SDS011;48102;47.526;19.072;2023-11-21T08:12:43;14.82;;;8.45;;
62110;SDS011;48102;47.526;19.072;2023-11-21T08:18:49;12.40;;;6.62;;
62110;SDS011;48102;47.526;19.072;2023-11-21T08:24:57;9.60;;;6.10;;
62110;SDS011;48102;47.526;19.072;2023-11-21T08:28:01;9.40;;;6.28;;
62110;SDS011;48102;47.526;19.072;2023-11-21T08:31:04;10.10;;;5.95;;
62110;SDS011;48102;47.526;19.072;2023-11-21T08:37:11;10.48;;;6.07;;
62110;SDS011;48102;47.526;19.072;2023-11-21T08:40:15;6.95;;;5.45;;
62110;SDS011;48102;47.526;19.072;2023-11-21T08:43:20;10.95;;;6.00;;
62110;SDS011;48102;47.526;19.072;2023-11-21T08:46:23;7.55;;;5.50;;
62110;SDS011;48102;47.526;19.072;2023-11-21T08:49:28;12.18;;;5.25;;
62110;SDS011;48102;47.526;19.072;2023-11-21T08:52:33;11.98;;;5.35;;
62110;SDS011;48102;47.526;19.072;2023-11-21T08:55:36;10.65;;;5.40;;
62110;SDS011;48102;47.526;19.072;2023-11-21T08:58:40;10.10;;;5.00;;
62110;SDS011;48102;47.526;19.072;2023-11-21T09:01:44;10.82;;;5.10;;
62110;SDS011;48102;47.526;19.072;2023-11-21T09:04:47;12.32;;;5.10;;
62110;SDS011;48102;47.526;19.072;2023-11-21T09:07:50;11.20;;;5.57;;
62110;SDS011;48102;47.526;19.072;2023-11-21T09:13:55;15.75;;;5.70;;
62110;SDS011;48102;47.526;19.072;2023-11-21T09:17:00;8.88;;;5.20;;
62110;SDS011;48102;47.526;19.072;2023-11-21T09:23:09;14.10;;;5.68;;
62110;SDS011;48102;47.526;19.072;2023-11-21T09:26:12;13.00;;;4.93;;
62110;SDS011;48102;47.526;19.072;2023-11-21T09:29:15;15.10;;;5.28;;
62110;SDS011;48102;47.526;19.072;2023-11-21T09:32:18;9.35;;;4.78;;
62110;SDS011;48102;47.526;19.072;2023-11-21T09:35:21;10.90;;;5.07;;
62110;SDS011;48102;47.526;19.072;2023-11-21T09:41:31;9.70;;;4.57;;
62110;SDS011;48102;47.526;19.072;2023-11-21T09:48:10;10.85;;;4.12;;
62110;SDS011;48102;47.526;19.072;2023-11-21T09:51:14;6.65;;;3.80;;
62110;SDS011;48102;47.526;19.072;2023-11-21T09:54:18;7.00;;;4.05;;
62110;SDS011;48102;47.526;19.072;2023-11-21T09:57:24;8.00;;;4.18;;
62110;SDS011;48102;47.526;19.072;2023-11-21T10:00:28;10.23;;;4.22;;
62110;SDS011;48102;47.526;19.072;2023-11-21T10:03:35;9.90;;;3.90;;
62110;SDS011;48102;47.526;19.072;2023-11-21T10:06:41;9.88;;;4.12;;
62110;SDS011;48102;47.526;19.072;2023-11-21T10:09:45;12.50;;;5.40;;
62110;SDS011;48102;47.526;19.072;2023-11-21T10:12:49;15.68;;;5.57;;
62110;SDS011;48102;47.526;19.072;2023-11-21T10:15:56;16.02;;;6.80;;
62110;SDS011;48102;47.526;19.072;2023-11-21T10:19:00;12.10;;;6.30;;
62110;SDS011;48102;47.526;19.072;2023-11-21T10:22:16;8.43;;;4.60;;
62110;SDS011;48102;47.526;19.072;2023-11-21T10:25:19;11.43;;;4.90;;
62110;SDS011;48102;47.526;19.072;2023-11-21T10:28:23;7.65;;;4.25;;
62110;SDS011;48102;47.526;19.072;2023-11-21T10:31:34;11.50;;;4.22;;
62110;SDS011;48102;47.526;19.072;2023-11-21T10:37:44;7.20;;;4.05;;
62110;SDS011;48102;47.526;19.072;2023-11-21T10:43:52;17.73;;;5.47;;
62110;SDS011;48102;47.526;19.072;2023-11-21T10:46:56;11.00;;;5.35;;
62110;SDS011;48102;47.526;19.072;2023-11-21T10:50:00;8.57;;;4.68;;
62110;SDS011;48102;47.526;19.072;2023-11-21T10:53:04;12.93;;;3.65;;
62110;SDS011;48102;47.526;19.072;2023-11-21T10:56:08;8.98;;;3.85;;
62110;SDS011;48102;47.526;19.072;2023-11-21T10:59:20;7.55;;;3.95;;
62110;SDS011;48102;47.526;19.072;2023-11-21T11:02:27;9.75;;;4.12;;
62110;SDS011;48102;47.526;19.072;2023-11-21T11:05:32;11.12;;;5.25;;
62110;SDS011;48102;47.526;19.072;2023-11-21T11:11:41;15.60;;;6.85;;
62110;SDS011;48102;47.526;19.072;2023-11-21T11:14:46;15.73;;;6.60;;
62110;SDS011;48102;47.526;19.072;2023-11-21T11:17:51;8.63;;;5.75;;
62110;SDS011;48102;47.526;19.072;2023-11-21T11:21:34;9.65;;;5.70;;
62110;SDS011;48102;47.526;19.072;2023-11-21T11:24:44;6.50;;;5.00;;
62110;SDS011;48102;47.526;19.072;2023-11-21T11:28:08;11.38;;;6.18;;
62110;SDS011;48102;47.526;19.072;2023-11-21T11:35:06;10.90;;;5.30;;
62110;SDS011;48102;47.526;19.072;2023-11-21T11:38:22;7.60;;;4.07;;
62110;SDS011;48102;47.526;19.072;2023-11-21T11:41:26;8.40;;;4.43;;
62110;SDS011;48102;47.526;19.072;2023-11-21T11:47:57;7.72;;;4.47;;
62110;SDS011;48102;47.526;19.072;2023-11-21T11:51:15;7.57;;;4.40;;
62110;SDS011;48102;47.526;19.072;2023-11-21T11:54:36;8.40;;;4.57;;
62110;SDS011;48102;47.526;19.072;2023-11-21T11:57:40;7.00;;;4.40;;
62110;SDS011;48102;47.526;19.072;2023-11-21T12:00:43;7.35;;;4.35;;
62110;SDS011;48102;47.526;19.072;2023-11-21T12:04:34;7.43;;;4.65;;
62110;SDS011;48102;47.526;19.072;2023-11-21T12:07:19;8.63;;;4.40;;
62110;SDS011;48102;47.526;19.072;2023-11-21T12:10:25;7.78;;;4.70;;
62110;SDS011;48102;47.526;19.072;2023-11-21T12:13:32;9.02;;;4.93;;
62110;SDS011;48102;47.526;19.072;2023-11-21T12:16:35;8.68;;;5.03;;
62110;SDS011;48102;47.526;19.072;2023-11-21T12:22:42;7.30;;;4.10;;
62110;SDS011;48102;47.526;19.072;2023-11-21T12:25:55;7.62;;;4.60;;
62110;SDS011;48102;47.526;19.072;2023-11-21T12:28:58;6.45;;;4.07;;
62110;SDS011;48102;47.526;19.072;2023-11-21T12:32:01;4.93;;;4.10;;
62110;SDS011;48102;47.526;19.072;2023-11-21T12:35:05;9.75;;;4.82;;
62110;SDS011;48102;47.526;19.072;2023-11-21T12:38:08;10.93;;;4.65;;
62110;SDS011;48102;47.526;19.072;2023-11-21T12:41:12;6.80;;;4.28;;
62110;SDS011;48102;47.526;19.072;2023-11-21T12:44:15;9.80;;;4.60;;
62110;SDS011;48102;47.526;19.072;2023-11-21T12:47:19;6.15;;;4.40;;
62110;SDS011;48102;47.526;19.072;2023-11-21T12:50:24;8.23;;;4.43;;
62110;SDS011;48102;47.526;19.072;2023-11-21T12:53:31;8.88;;;5.18;;
62110;SDS011;48102;47.526;19.072;2023-11-21T12:56:41;12.25;;;5.25;;
62110;SDS011;48102;47.526;19.072;2023-11-21T12:59:45;9.23;;;4.75;;
62110;SDS011;48102;47.526;19.072;2023-11-21T13:02:48;14.05;;;5.45;;
62110;SDS011;48102;47.526;19.072;2023-11-21T13:05:51;9.90;;;4.85;;
62110;SDS011;48102;47.526;19.072;2023-11-21T13:08:57;6.85;;;4.65;;
62110;SDS011;48102;47.526;19.072;2023-11-21T13:12:02;11.85;;;4.57;;
62110;SDS011;48102;47.526;19.072;2023-11-21T13:15:05;12.25;;;5.68;;
62110;SDS011;48102;47.526;19.072;2023-11-21T13:18:10;11.35;;;5.10;;
62110;SDS011;48102;47.526;19.072;2023-11-21T13:21:13;9.30;;;5.90;;
62110;SDS011;48102;47.526;19.072;2023-11-21T13:24:17;10.60;;;5.43;;
62110;SDS011;48102;47.526;19.072;2023-11-21T13:27:20;8.63;;;5.62;;
62110;SDS011;48102;47.526;19.072;2023-11-21T13:30:24;11.57;;;5.25;;
62110;SDS011;48102;47.526;19.072;2023-11-21T13:33:36;11.02;;;5.62;;
62110;SDS011;48102;47.526;19.072;2023-11-21T13:36:40;9.68;;;3.65;;
62110;SDS011;48102;47.526;19.072;2023-11-21T13:39:45;5.85;;;3.05;;
62110;SDS011;48102;47.526;19.072;2023-11-21T13:42:54;3.87;;;2.83;;
62110;SDS011;48102;47.526;19.072;2023-11-21T13:45:57;5.15;;;2.53;;
62110;SDS011;48102;47.526;19.072;2023-11-21T13:49:15;3.75;;;2.35;;
62110;SDS011;48102;47.526;19.072;2023-11-21T13:52:19;5.82;;;3.45;;
62110;SDS011;48102;47.526;19.072;2023-11-21T13:55:25;5.15;;;2.78;;
62110;SDS011;48102;47.526;19.072;2023-11-21T14:01:44;5.60;;;3.15;;
62110;SDS011;48102;47.526;19.072;2023-11-21T14:04:58;6.35;;;2.92;;
62110;SDS011;48102;47.526;19.072;2023-11-21T14:08:04;5.20;;;3.03;;
62110;SDS011;48102;47.526;19.072;2023-11-21T14:11:09;4.82;;;3.17;;
62110;SDS011;48102;47.526;19.072;2023-11-21T14:14:13;7.60;;;3.12;;
62110;SDS011;48102;47.526;19.072;2023-11-21T14:20:19;7.47;;;2.95;;
62110;SDS011;48102;47.526;19.072;2023-11-21T14:23:23;6.37;;;3.17;;
62110;SDS011;48102;47.526;19.072;2023-11-21T14:26:26;5.45;;;3.25;;
62110;SDS011;48102;47.526;19.072;2023-11-21T14:29:30;4.07;;;3.10;;
62110;SDS011;48102;47.526;19.072;2023-11-21T14:32:37;4.40;;;2.87;;
62110;SDS011;48102;47.526;19.072;2023-11-21T14:35:41;5.55;;;2.72;;
62110;SDS011;48102;47.526;19.072;2023-11-21T14:41:47;8.83;;;2.30;;
62110;SDS011;48102;47.526;19.072;2023-11-21T14:44:49;3.72;;;2.30;;
62110;SDS011;48102;47.526;19.072;2023-11-21T14:47:54;4.18;;;2.17;;
62110;SDS011;48102;47.526;19.072;2023-11-21T14:51:20;5.25;;;2.30;;
62110;SDS011;48102;47.526;19.072;2023-11-21T14:54:54;3.12;;;2.15;;
62110;SDS011;48102;47.526;19.072;2023-11-21T14:58:17;4.47;;;2.20;;
62110;SDS011;48102;47.526;19.072;2023-11-21T15:01:30;6.20;;;2.22;;
62110;SDS011;48102;47.526;19.072;2023-11-21T15:04:52;5.68;;;1.87;;
62110;SDS011;48102;47.526;19.072;2023-11-21T15:08:01;4.45;;;2.00;;
62110;SDS011;48102;47.526;19.072;2023-11-21T15:11:21;4.90;;;1.83;;
62110;SDS011;48102;47.526;19.072;2023-11-21T15:14:30;2.37;;;1.73;;
62110;SDS011;48102;47.526;19.072;2023-11-21T15:17:38;5.65;;;2.15;;
62110;SDS011;48102;47.526;19.072;2023-11-21T15:20:46;5.12;;;1.92;;
62110;SDS011;48102;47.526;19.072;2023-11-21T15:23:49;3.30;;;2.30;;
62110;SDS011;48102;47.526;19.072;2023-11-21T15:26:52;4.93;;;2.33;;
62110;SDS011;48102;47.526;19.072;2023-11-21T15:29:54;4.97;;;2.22;;
62110;SDS011;48102;47.526;19.072;2023-11-21T15:32:58;4.93;;;2.30;;
62110;SDS011;48102;47.526;19.072;2023-11-21T15:36:02;7.07;;;1.87;;
62110;SDS011;48102;47.526;19.072;2023-11-21T15:39:06;3.78;;;1.98;;
62110;SDS011;48102;47.526;19.072;2023-11-21T15:42:12;2.87;;;1.70;;
62110;SDS011;48102;47.526;19.072;2023-11-21T15:48:21;5.07;;;2.42;;
62110;SDS011;48102;47.526;19.072;2023-11-21T15:51:24;4.60;;;2.60;;
62110;SDS011;48102;47.526;19.072;2023-11-21T15:54:27;4.65;;;3.00;;
62110;SDS011;48102;47.526;19.072;2023-11-21T15:57:32;6.00;;;2.60;;
62110;SDS011;48102;47.526;19.072;2023-11-21T16:00:35;3.25;;;2.05;;
62110;SDS011;48102;47.526;19.072;2023-11-21T16:03:39;7.68;;;3.53;;
62110;SDS011;48102;47.526;19.072;2023-11-21T16:06:43;4.22;;;2.87;;
62110;SDS011;48102;47.526;19.072;2023-11-21T16:09:46;6.07;;;2.40;;
62110;SDS011;48102;47.526;19.072;2023-11-21T16:12:49;10.45;;;3.03;;
62110;SDS011;48102;47.526;19.072;2023-11-21T16:15:52;7.07;;;2.40;;
62110;SDS011;48102;47.526;19.072;2023-11-21T16:18:56;4.43;;;2.70;;
62110;SDS011;48102;47.526;19.072;2023-11-21T16:22:00;4.25;;;2.42;;
